Time;durP1;ratioP1;P1;durP2;ratioP2;P2;SDS_P1;SDS_P2;PMS_P1;PMS_P2;Temp;Humidity;BMP_temperature;BMP_pressure;BME280_temperature;BME280_humidity;BME280_pressure;Samples;Min_cycle;Max_cycle;Signal;HPM_P1;HPM_P2
2024/01/03 00:00:22;;;;;;;0.90;0.40;;;13.20;54.30;;;;;;5011463;28;20229;-47
2024/01/03 00:02:49;;;;;;;0.90;0.32;;;13.20;54.70;;;;;;4995256;28;20220;-49
2024/01/03 00:05:20;;;;;;;1.00;0.63;;;13.30;54.10;;;;;;5011620;28;20178;-53
2024/01/03 00:07:47;;;;;;;0.88;0.35;;;13.40;54.20;;;;;;5011488;28;20202;-50
2024/01/03 00:10:29;;;;;;;0.90;0.30;;;13.50;53.50;;;;;;5013729;28;20714;-48
2024/01/03 00:12:55;;;;;;;0.98;0.60;;;13.40;53.30;;;;;;5015160;28;20190;-52
2024/01/03 00:15:35;;;;;;;0.90;0.40;;;13.40;54.30;;;;;;5014982;28;20718;-47
2024/01/03 00:18:13;;;;;;;1.00;0.50;;;13.50;53.40;;;;;;5014949;28;20484;-46
2024/01/03 00:20:38;;;;;;;1.77;0.60;;;13.40;53.10;;;;;;5014627;28;20253;-48
2024/01/03 00:23:09;;;;;;;0.90;0.40;;;13.50;53.30;;;;;;5014903;28;20278;-47
2024/01/03 00:25:35;;;;;;;0.90;0.40;;;13.50;52.80;;;;;;5014745;28;20237;-49
2024/01/03 00:28:01;;;;;;;0.90;0.50;;;13.40;52.90;;;;;;5014644;28;20203;-51
2024/01/03 00:30:27;;;;;;;1.00;0.50;;;13.50;53.10;;;;;;5014644;28;20181;-51
2024/01/03 00:32:52;;;;;;;1.00;0.50;;;13.60;53.00;;;;;;5014689;28;20982;-46
2024/01/03 00:35:18;;;;;;;0.90;0.33;;;13.60;51.70;;;;;;5014758;28;20221;-52
2024/01/03 00:37:45;;;;;;;1.00;0.50;;;13.50;52.40;;;;;;5014310;28;20253;-50
2024/01/03 00:40:39;;;;;;;1.00;0.70;;;13.60;52.10;;;;;;5014342;28;20664;-46
2024/01/03 00:43:04;;;;;;;0.90;0.40;;;13.70;51.90;;;;;;5001109;28;20206;-47
2024/01/03 00:45:30;;;;;;;0.90;0.40;;;13.70;51.20;;;;;;5014370;28;20217;-54
2024/01/03 00:47:56;;;;;;;0.90;0.50;;;13.70;51.20;;;;;;5014414;28;20194;-54
2024/01/03 00:50:21;;;;;;;1.00;0.50;;;13.80;50.60;;;;;;5014230;28;20183;-46
2024/01/03 00:52:47;;;;;;;0.90;0.40;;;13.80;50.80;;;;;;5014174;28;20587;-53
2024/01/03 00:55:14;;;;;;;1.00;0.63;;;13.80;50.50;;;;;;5014472;28;20182;-49
2024/01/03 00:57:39;;;;;;;0.80;0.20;;;13.80;49.80;;;;;;5013797;28;20274;-49
2024/01/03 01:00:06;;;;;;;0.83;0.30;;;13.90;49.30;;;;;;5013892;28;20178;-55
2024/01/03 01:02:32;;;;;;;0.90;0.55;;;13.70;50.10;;;;;;5013870;28;20464;-51
2024/01/03 01:04:57;;;;;;;1.10;0.60;;;13.70;50.70;;;;;;5010336;28;20203;-55
2024/01/03 01:07:23;;;;;;;0.90;0.40;;;13.70;49.80;;;;;;5009560;28;20228;-47
2024/01/03 01:09:49;;;;;;;0.93;0.47;;;13.60;49.90;;;;;;5013748;28;20179;-48
2024/01/03 01:12:14;;;;;;;0.90;0.40;;;13.70;50.10;;;;;;5014105;28;20193;-50
2024/01/03 01:14:40;;;;;;;0.87;0.40;;;13.80;49.40;;;;;;5013867;28;20194;-47
2024/01/03 01:17:06;;;;;;;0.90;0.40;;;13.70;49.50;;;;;;5013748;28;20207;-54
2024/01/03 01:19:32;;;;;;;1.00;0.70;;;13.60;50.30;;;;;;5013590;28;20257;-54
2024/01/03 01:21:57;;;;;;;0.90;0.32;;;13.60;50.30;;;;;;5013080;28;20181;-47
2024/01/03 01:24:23;;;;;;;0.90;0.50;;;13.60;50.10;;;;;;5013574;28;20190;-48
2024/01/03 01:26:49;;;;;;;0.90;0.63;;;13.80;49.90;;;;;;5013640;28;20234;-51
2024/01/03 01:29:14;;;;;;;1.00;0.57;;;13.80;49.00;;;;;;5013380;28;20202;-47
2024/01/03 01:31:40;;;;;;;1.00;0.63;;;13.90;49.10;;;;;;5012134;28;20174;-49
2024/01/03 01:34:06;;;;;;;1.00;0.63;;;14.00;49.00;;;;;;5006890;28;20205;-53
2024/01/03 01:36:32;;;;;;;0.90;0.40;;;14.00;49.10;;;;;;5013207;28;20248;-51
2024/01/03 01:38:57;;;;;;;0.90;0.50;;;14.10;48.60;;;;;;5005273;28;20181;-45
2024/01/03 01:41:23;;;;;;;0.90;0.50;;;14.20;48.20;;;;;;5005210;28;20186;-50
2024/01/03 01:43:49;;;;;;;0.90;0.30;;;14.10;48.30;;;;;;5013248;28;20175;-50
2024/01/03 01:46:16;;;;;;;1.00;0.50;;;14.10;48.20;;;;;;5013236;28;20445;-48
2024/01/03 01:48:42;;;;;;;0.90;0.40;;;14.10;48.30;;;;;;5012993;28;20236;-45
2024/01/03 01:51:10;;;;;;;0.90;0.30;;;14.20;48.00;;;;;;5013251;28;20225;-50
2024/01/03 01:53:36;;;;;;;0.90;0.30;;;14.10;48.10;;;;;;5013190;28;20232;-53
2024/01/03 01:56:02;;;;;;;1.53;0.70;;;14.10;48.30;;;;;;5012909;28;20266;-47
2024/01/03 01:58:29;;;;;;;0.90;0.50;;;14.20;48.10;;;;;;5012782;28;20250;-53
2024/01/03 02:00:55;;;;;;;0.90;0.40;;;14.30;48.30;;;;;;5012838;28;20265;-47
2024/01/03 02:03:22;;;;;;;0.90;0.40;;;14.20;47.90;;;;;;5004864;28;20189;-50
2024/01/03 02:05:48;;;;;;;0.90;0.40;;;14.30;47.60;;;;;;5012839;28;20178;-50
2024/01/03 02:08:15;;;;;;;0.90;0.40;;;14.30;48.10;;;;;;5012931;28;20208;-47
2024/01/03 02:10:40;;;;;;;0.90;0.30;;;14.40;48.20;;;;;;5012594;28;20182;-48
2024/01/03 02:13:06;;;;;;;0.90;0.47;;;14.40;47.30;;;;;;5012850;28;20183;-51
2024/01/03 02:15:32;;;;;;;1.00;0.40;;;14.40;47.80;;;;;;5004583;28;20178;-53
2024/01/03 02:17:59;;;;;;;0.90;0.30;;;14.40;47.00;;;;;;5012598;28;20199;-47
2024/01/03 02:20:30;;;;;;;0.90;0.40;;;14.40;46.80;;;;;;5012533;28;20210;-54
2024/01/03 02:22:56;;;;;;;0.90;0.30;;;14.40;46.70;;;;;;5009566;28;20179;-54
2024/01/03 02:25:21;;;;;;;0.90;0.40;;;14.40;46.60;;;;;;4999864;28;20174;-46
2024/01/03 02:27:48;;;;;;;1.03;0.70;;;14.40;46.60;;;;;;5012451;28;20203;-52
2024/01/03 02:30:15;;;;;;;1.00;0.60;;;14.40;46.70;;;;;;5004369;28;20190;-53
2024/01/03 02:32:40;;;;;;;0.90;0.40;;;14.30;46.60;;;;;;5011443;28;20672;-49
2024/01/03 02:35:07;;;;;;;1.00;0.63;;;14.20;46.70;;;;;;5012607;28;20186;-48
2024/01/03 02:37:33;;;;;;;1.00;0.60;;;14.20;47.10;;;;;;5012306;28;20492;-47
2024/01/03 02:39:59;;;;;;;0.90;0.40;;;14.10;47.10;;;;;;5012338;28;20181;-48
2024/01/03 02:42:25;;;;;;;0.90;0.40;;;14.10;47.00;;;;;;5012404;28;20266;-51
2024/01/03 02:44:50;;;;;;;1.00;0.50;;;14.20;47.10;;;;;;5012240;28;20171;-48
2024/01/03 02:47:16;;;;;;;0.90;0.43;;;14.20;46.80;;;;;;5012209;28;20687;-47
2024/01/03 02:49:42;;;;;;;0.90;0.37;;;14.30;46.70;;;;;;5004075;28;20179;-49
2024/01/03 02:52:07;;;;;;;0.97;0.50;;;14.30;46.30;;;;;;5004051;28;20671;-54
2024/01/03 02:54:33;;;;;;;0.90;0.47;;;14.30;46.40;;;;;;5012173;28;20257;-46
2024/01/03 02:56:59;;;;;;;1.00;0.70;;;14.30;46.70;;;;;;5012014;28;20275;-54
2024/01/03 02:59:25;;;;;;;1.00;0.60;;;14.40;46.60;;;;;;5004975;28;20691;-52
2024/01/03 03:01:51;;;;;;;1.00;0.52;;;14.40;46.00;;;;;;5003079;28;20175;-49
2024/01/03 03:04:17;;;;;;;5.00;0.55;;;14.40;45.90;;;;;;5012067;28;20244;-54
2024/01/03 03:06:43;;;;;;;0.80;0.20;;;14.30;46.40;;;;;;5010497;28;20210;-47
2024/01/03 03:09:08;;;;;;;0.90;0.43;;;14.30;46.40;;;;;;5020055;22;20231;-51
2024/01/03 03:11:34;;;;;;;0.90;0.30;;;14.20;46.40;;;;;;5011992;28;20535;-54
2024/01/03 03:14:00;;;;;;;0.90;0.30;;;14.30;46.30;;;;;;5012018;28;20577;-50
2024/01/03 03:16:25;;;;;;;1.00;0.60;;;14.30;46.30;;;;;;5011741;28;20537;-52
2024/01/03 03:18:51;;;;;;;1.00;0.50;;;14.30;45.90;;;;;;5011826;28;20273;-52
2024/01/03 03:21:17;;;;;;;0.90;0.50;;;14.30;45.80;;;;;;5012039;28;20194;-50
2024/01/03 03:23:43;;;;;;;0.95;0.45;;;14.30;45.70;;;;;;5011960;28;20170;-51
2024/01/03 03:26:11;;;;;;;0.90;0.40;;;14.30;46.00;;;;;;5011841;28;20183;-54
2024/01/03 03:28:36;;;;;;;1.00;0.55;;;14.40;45.60;;;;;;5011432;28;20203;-49
2024/01/03 03:31:03;;;;;;;1.00;0.70;;;14.40;45.40;;;;;;5011696;28;20189;-51
2024/01/03 03:33:31;;;;;;;1.00;0.60;;;14.40;45.20;;;;;;5012005;28;20189;-54
2024/01/03 03:35:57;;;;;;;1.00;0.60;;;14.30;45.80;;;;;;5011719;28;20166;-49
2024/01/03 03:38:23;;;;;;;1.00;0.60;;;14.30;45.70;;;;;;5011464;28;20206;-51
2024/01/03 03:40:48;;;;;;;1.30;0.98;;;14.20;45.80;;;;;;5011664;28;20187;-56
2024/01/03 03:43:14;;;;;;;1.00;0.50;;;14.20;46.30;;;;;;5011770;28;20170;-50
2024/01/03 03:45:40;;;;;;;1.00;0.53;;;14.30;45.60;;;;;;5014743;28;20198;-51
2024/01/03 03:48:06;;;;;;;0.90;0.50;;;14.30;45.80;;;;;;5015774;28;20429;-52
2024/01/03 03:50:32;;;;;;;1.73;0.80;;;14.40;45.10;;;;;;5015278;28;20209;-50
2024/01/03 03:52:58;;;;;;;0.90;0.40;;;14.40;45.00;;;;;;5015335;28;20183;-54
2024/01/03 03:55:23;;;;;;;1.00;0.60;;;14.30;45.30;;;;;;5015400;28;20261;-49
2024/01/03 03:57:49;;;;;;;0.90;0.40;;;14.30;45.60;;;;;;5015285;28;20209;-52
2024/01/03 04:00:15;;;;;;;1.00;0.53;;;14.30;45.10;;;;;;5015083;28;20259;-51
2024/01/03 04:02:41;;;;;;;0.90;0.43;;;14.30;45.00;;;;;;5015118;28;20185;-50
2024/01/03 04:05:07;;;;;;;1.50;0.70;;;14.20;44.90;;;;;;5015369;28;20179;-53
2024/01/03 04:07:32;;;;;;;1.00;0.60;;;14.20;44.90;;;;;;5015129;28;20179;-56
2024/01/03 04:09:58;;;;;;;0.90;0.50;;;14.20;45.10;;;;;;4998647;28;20276;-50
2024/01/03 04:12:24;;;;;;;0.90;0.40;;;14.20;44.50;;;;;;5015083;28;20187;-52
2024/01/03 04:14:50;;;;;;;0.80;0.30;;;14.30;44.70;;;;;;5014915;28;20186;-51
2024/01/03 04:17:16;;;;;;;0.90;0.40;;;14.40;44.70;;;;;;5014973;28;20195;-51
2024/01/03 04:19:41;;;;;;;1.00;0.70;;;14.50;43.50;;;;;;5014655;28;20198;-55
2024/01/03 04:22:08;;;;;;;1.00;0.60;;;14.30;44.50;;;;;;5014901;28;20587;-51
2024/01/03 04:24:33;;;;;;;1.00;0.68;;;14.30;43.70;;;;;;5014847;28;20410;-53
2024/01/03 04:26:59;;;;;;;0.90;0.47;;;14.40;43.20;;;;;;5014778;28;20187;-56
2024/01/03 04:29:25;;;;;;;0.90;0.40;;;14.40;43.60;;;;;;5014443;28;20568;-50
2024/01/03 04:31:50;;;;;;;1.00;0.60;;;14.50;43.30;;;;;;5014813;28;20183;-50
2024/01/03 04:34:16;;;;;;;0.90;0.30;;;14.30;42.90;;;;;;5014656;28;20174;-54
2024/01/03 04:36:42;;;;;;;0.90;0.43;;;14.30;43.00;;;;;;5014554;28;20205;-51
2024/01/03 04:39:08;;;;;;;0.90;0.40;;;14.30;43.10;;;;;;5014368;28;20217;-50
2024/01/03 04:41:33;;;;;;;1.25;0.52;;;14.30;42.90;;;;;;5014507;28;20290;-54
2024/01/03 04:43:59;;;;;;;1.00;0.60;;;14.30;43.20;;;;;;5014388;28;20186;-50
2024/01/03 04:46:25;;;;;;;1.00;0.60;;;14.30;43.00;;;;;;5014513;28;20678;-50
2024/01/03 04:48:50;;;;;;;1.27;0.97;;;14.40;43.00;;;;;;5014113;28;20209;-52
2024/01/03 04:51:16;;;;;;;0.90;0.30;;;14.40;42.90;;;;;;5014466;28;20194;-54
2024/01/03 04:53:43;;;;;;;0.90;0.40;;;14.50;42.70;;;;;;5014240;28;20540;-51
2024/01/03 04:56:09;;;;;;;0.93;0.45;;;14.40;42.40;;;;;;5013219;28;20468;-51
2024/01/03 04:58:34;;;;;;;0.90;0.50;;;14.40;42.50;;;;;;5013721;28;20202;-52
2024/01/03 05:01:00;;;;;;;0.90;0.40;;;14.30;42.60;;;;;;5014181;28;20209;-51
2024/01/03 05:03:26;;;;;;;0.80;0.30;;;14.30;42.60;;;;;;5014156;28;20231;-52
2024/01/03 05:05:51;;;;;;;0.90;0.50;;;14.30;42.20;;;;;;5014059;28;20182;-53
2024/01/03 05:08:17;;;;;;;1.00;0.60;;;14.20;43.20;;;;;;5013901;28;20241;-51
2024/01/03 05:10:43;;;;;;;0.90;0.40;;;14.20;42.50;;;;;;5013745;28;20268;-54
2024/01/03 05:13:09;;;;;;;0.90;0.40;;;14.00;42.60;;;;;;5013868;28;20593;-51
2024/01/03 05:15:34;;;;;;;1.17;0.60;;;14.00;42.80;;;;;;5013859;28;20185;-50
2024/01/03 05:18:00;;;;;;;0.80;0.20;;;14.00;42.50;;;;;;5013844;28;20289;-55
2024/01/03 05:20:26;;;;;;;0.80;0.20;;;13.90;43.30;;;;;;5013636;28;20540;-50
2024/01/03 05:22:51;;;;;;;0.90;0.40;;;13.90;42.90;;;;;;5013677;28;20171;-55
2024/01/03 05:25:17;;;;;;;0.90;0.40;;;13.90;43.20;;;;;;5013781;28;20531;-50
2024/01/03 05:27:43;;;;;;;0.90;0.40;;;13.90;43.00;;;;;;5013498;28;20194;-52
2024/01/03 05:30:09;;;;;;;0.90;0.37;;;13.80;43.30;;;;;;5013528;28;20214;-50
2024/01/03 05:32:35;;;;;;;1.95;0.60;;;13.90;43.40;;;;;;5013494;28;20178;-51
2024/01/03 05:35:01;;;;;;;0.80;0.30;;;14.00;43.00;;;;;;5013596;28;20179;-55
2024/01/03 05:37:26;;;;;;;0.82;0.25;;;14.10;42.50;;;;;;5013441;28;20485;-52
2024/01/03 05:39:52;;;;;;;1.13;0.80;;;14.00;42.80;;;;;;5013107;28;20210;-49
2024/01/03 05:42:18;;;;;;;0.87;0.33;;;14.00;42.30;;;;;;5013322;28;20210;-55
2024/01/03 05:44:43;;;;;;;0.90;0.40;;;14.00;42.70;;;;;;5013245;28;20174;-54
2024/01/03 05:47:09;;;;;;;0.90;0.40;;;14.00;42.30;;;;;;5013445;28;20242;-50
2024/01/03 05:49:35;;;;;;;0.80;0.30;;;14.10;42.90;;;;;;5013075;28;20198;-53
2024/01/03 05:52:01;;;;;;;0.90;0.30;;;14.20;42.30;;;;;;4997531;28;20185;-54
2024/01/03 05:54:27;;;;;;;0.90;0.38;;;14.20;42.30;;;;;;5013145;28;20185;-53
2024/01/03 05:56:53;;;;;;;0.90;0.30;;;14.30;42.50;;;;;;5012903;28;20202;-49
2024/01/03 05:59:20;;;;;;;0.90;0.40;;;14.30;42.60;;;;;;5012948;28;20252;-53
2024/01/03 06:01:46;;;;;;;0.90;0.30;;;14.30;42.80;;;;;;5013152;28;20421;-51
2024/01/03 06:04:13;;;;;;;0.90;0.40;;;14.30;42.80;;;;;;5013019;28;20185;-51
2024/01/03 06:06:40;;;;;;;3.15;0.90;;;14.30;42.80;;;;;;5012786;28;20607;-54
2024/01/03 06:09:06;;;;;;;0.90;0.40;;;14.30;42.90;;;;;;5012572;28;20218;-51
2024/01/03 06:11:31;;;;;;;0.90;0.40;;;14.30;42.80;;;;;;5012869;28;20682;-49
2024/01/03 06:13:57;;;;;;;0.80;0.20;;;14.20;43.20;;;;;;5012735;28;20232;-53
2024/01/03 06:16:23;;;;;;;0.90;0.30;;;14.10;43.70;;;;;;5012785;28;20171;-55
2024/01/03 06:18:48;;;;;;;0.90;0.33;;;14.20;43.80;;;;;;5012427;28;20229;-50
2024/01/03 06:21:14;;;;;;;0.80;0.30;;;14.20;43.50;;;;;;5012715;28;20174;-49
2024/01/03 06:23:40;;;;;;;1.00;0.53;;;14.20;43.60;;;;;;5012534;28;20186;-53
2024/01/03 06:26:06;;;;;;;1.58;0.52;;;14.20;43.60;;;;;;5012505;28;20178;-54
2024/01/03 06:28:32;;;;;;;0.80;0.20;;;14.30;43.40;;;;;;5012306;28;20289;-48
2024/01/03 06:30:59;;;;;;;1.37;0.73;;;14.20;43.30;;;;;;5012522;28;20278;-51
2024/01/03 06:33:25;;;;;;;0.90;0.30;;;14.20;43.50;;;;;;5012348;28;20425;-47
2024/01/03 06:35:50;;;;;;;0.90;0.37;;;14.10;43.80;;;;;;5012391;28;20190;-49
2024/01/03 06:38:16;;;;;;;1.00;0.40;;;14.10;43.60;;;;;;5012295;28;20260;-55
2024/01/03 06:40:42;;;;;;;1.00;0.77;;;14.10;43.60;;;;;;5012127;28;20179;-48
2024/01/03 06:43:07;;;;;;;0.90;0.50;;;14.00;43.10;;;;;;5012271;28;20170;-47
2024/01/03 06:45:33;;;;;;;1.53;0.83;;;14.00;43.40;;;;;;5012381;28;20175;-50
2024/01/03 06:47:59;;;;;;;1.43;0.50;;;14.10;43.40;;;;;;5012224;28;20179;-48
2024/01/03 06:50:24;;;;;;;0.90;0.40;;;14.10;43.10;;;;;;5012150;28;20256;-50
2024/01/03 06:52:50;;;;;;;1.00;0.37;;;14.10;43.10;;;;;;5012166;28;20174;-52
2024/01/03 06:55:16;;;;;;;0.90;0.30;;;14.20;42.70;;;;;;5012184;28;20190;-47
2024/01/03 06:57:42;;;;;;;1.53;0.87;;;14.20;42.30;;;;;;5012189;28;20298;-53
2024/01/03 07:00:08;;;;;;;0.80;0.23;;;14.20;42.40;;;;;;5012022;28;20195;-54
2024/01/03 07:02:34;;;;;;;0.90;0.40;;;14.30;41.90;;;;;;5012199;28;20467;-48
2024/01/03 07:04:59;;;;;;;1.00;0.30;;;14.30;42.40;;;;;;5012119;28;20174;-50
2024/01/03 07:07:25;;;;;;;2.07;1.27;;;14.20;42.00;;;;;;5012104;28;20223;-51
2024/01/03 07:09:51;;;;;;;0.90;0.40;;;14.20;42.00;;;;;;5011625;28;20226;-48
2024/01/03 07:12:17;;;;;;;0.90;0.30;;;14.20;41.90;;;;;;5012266;28;20174;-49
2024/01/03 07:14:42;;;;;;;1.10;0.67;;;14.30;41.90;;;;;;5012211;28;20178;-49
2024/01/03 07:17:08;;;;;;;0.97;0.53;;;14.30;41.60;;;;;;5012069;28;20198;-53
2024/01/03 07:19:34;;;;;;;0.80;0.30;;;14.70;42.00;;;;;;5013291;28;20195;-46
2024/01/03 07:21:59;;;;;;;0.80;0.20;;;14.10;41.80;;;;;;5015904;28;20174;-46
2024/01/03 07:24:25;;;;;;;0.90;0.30;;;14.10;41.90;;;;;;5015890;28;20181;-53
2024/01/03 07:26:51;;;;;;;0.90;0.50;;;14.00;41.90;;;;;;5015754;28;20178;-53
2024/01/03 07:29:17;;;;;;;0.90;0.40;;;14.10;42.00;;;;;;5015830;28;20202;-49
2024/01/03 07:31:42;;;;;;;0.90;0.40;;;14.20;41.40;;;;;;5015907;28;20186;-48
2024/01/03 07:34:08;;;;;;;0.95;0.50;;;14.20;41.50;;;;;;5015784;28;20179;-55
2024/01/03 07:36:34;;;;;;;1.10;0.73;;;14.20;41.50;;;;;;5015690;28;20311;-49
2024/01/03 07:39:00;;;;;;;1.50;0.53;;;14.20;41.70;;;;;;5015237;28;20663;-46
2024/01/03 07:41:26;;;;;;;0.90;0.50;;;14.30;41.40;;;;;;5015650;28;20425;-53
2024/01/03 07:43:52;;;;;;;0.90;0.50;;;14.20;41.10;;;;;;5015640;28;20182;-52
2024/01/03 07:46:18;;;;;;;1.10;0.90;;;14.20;41.30;;;;;;5015597;28;20504;-50
2024/01/03 07:48:43;;;;;;;1.00;0.57;;;14.20;41.50;;;;;;5015191;28;20282;-53
2024/01/03 07:51:11;;;;;;;0.90;0.30;;;14.30;41.50;;;;;;5015536;28;20256;-48
2024/01/03 07:53:37;;;;;;;1.00;0.50;;;14.40;41.20;;;;;;5015373;28;20313;-49
2024/01/03 07:56:06;;;;;;;0.90;0.50;;;14.50;41.20;;;;;;4999427;28;20644;-53
2024/01/03 07:58:31;;;;;;;1.38;0.63;;;14.60;41.00;;;;;;5015056;28;20213;-49
2024/01/03 08:00:57;;;;;;;2.70;0.50;;;14.50;40.80;;;;;;5015209;28;20187;-49
2024/01/03 08:03:23;;;;;;;0.90;0.57;;;14.20;41.20;;;;;;5015272;28;20699;-52
2024/01/03 08:05:49;;;;;;;1.40;0.90;;;14.30;41.40;;;;;;5015133;28;20189;-49
2024/01/03 08:08:14;;;;;;;1.13;1.03;;;14.30;41.50;;;;;;5014908;28;20199;-47
2024/01/03 08:10:40;;;;;;;0.90;0.53;;;14.40;40.80;;;;;;5014832;28;20179;-48
2024/01/03 08:13:06;;;;;;;0.90;0.50;;;14.40;40.10;;;;;;5015066;28;20225;-49
2024/01/03 08:15:33;;;;;;;0.90;0.53;;;14.40;40.70;;;;;;5015140;28;20182;-48
2024/01/03 08:17:58;;;;;;;1.33;0.70;;;14.50;39.90;;;;;;5014790;28;20839;-51
2024/01/03 08:20:24;;;;;;;0.90;0.40;;;14.40;40.00;;;;;;5014762;28;20186;-47
2024/01/03 08:22:51;;;;;;;2.50;0.80;;;14.30;39.80;;;;;;5015096;28;20182;-46
2024/01/03 08:25:17;;;;;;;0.95;0.57;;;14.20;40.20;;;;;;5014892;28;20675;-48
2024/01/03 08:27:43;;;;;;;0.90;0.40;;;14.30;41.00;;;;;;5014793;28;20270;-48
2024/01/03 08:30:09;;;;;;;0.80;0.30;;;14.30;40.00;;;;;;5014091;28;20441;-46
2024/01/03 08:32:36;;;;;;;2.65;0.50;;;14.30;39.70;;;;;;5014020;28;20425;-56
2024/01/03 08:35:03;;;;;;;0.80;0.20;;;14.40;39.90;;;;;;5014649;28;20206;-56
2024/01/03 08:37:30;;;;;;;1.45;0.98;;;14.70;39.40;;;;;;5014529;28;20209;-48
2024/01/03 08:39:56;;;;;;;0.90;0.40;;;14.80;39.60;;;;;;4996739;28;20688;-49
2024/01/03 08:42:25;;;;;;;0.90;0.50;;;14.80;39.30;;;;;;5014623;28;20183;-52
2024/01/03 08:44:53;;;;;;;1.35;0.52;;;14.90;39.20;;;;;;5014298;28;20548;-48
2024/01/03 08:47:19;;;;;;;0.80;0.30;;;14.80;39.10;;;;;;5014507;28;20265;-55
2024/01/03 08:49:45;;;;;;;0.90;0.30;;;14.80;39.20;;;;;;5014054;28;20226;-50
2024/01/03 08:52:11;;;;;;;0.88;0.32;;;15.00;39.10;;;;;;5014420;28;20183;-47
2024/01/03 08:54:37;;;;;;;0.90;0.30;;;15.10;39.00;;;;;;5014453;28;20266;-52
2024/01/03 08:57:04;;;;;;;0.93;0.53;;;15.60;38.80;;;;;;5014262;28;20202;-48
2024/01/03 08:59:29;;;;;;;0.80;0.30;;;15.70;37.50;;;;;;5014047;28;20672;-48
2024/01/03 09:01:56;;;;;;;1.30;0.40;;;15.80;36.90;;;;;;5014123;28;20241;-52
2024/01/03 09:04:22;;;;;;;1.00;0.40;;;15.60;37.40;;;;;;5014088;28;20186;-49
2024/01/03 09:06:51;;;;;;;1.02;0.55;;;15.70;37.90;;;;;;5014078;28;20886;-49
2024/01/03 09:09:17;;;;;;;1.65;0.90;;;16.10;37.50;;;;;;5013726;28;20218;-51
2024/01/03 09:11:43;;;;;;;1.10;0.65;;;16.80;35.60;;;;;;5005781;28;20190;-48
2024/01/03 09:14:09;;;;;;;0.95;0.43;;;17.20;34.50;;;;;;5013968;28;20666;-51
2024/01/03 09:16:35;;;;;;;1.10;0.45;;;17.10;35.30;;;;;;5013877;28;20206;-50
2024/01/03 09:19:02;;;;;;;1.10;0.40;;;17.10;35.30;;;;;;5005421;28;20198;-49
2024/01/03 09:21:30;;;;;;;3.33;0.95;;;17.10;34.60;;;;;;5013950;28;20179;-50
2024/01/03 09:23:57;;;;;;;1.00;0.50;;;17.10;35.10;;;;;;5013781;28;20182;-48
2024/01/03 09:26:23;;;;;;;0.90;0.30;;;17.00;34.10;;;;;;5013877;28;20608;-51
2024/01/03 09:28:49;;;;;;;1.00;0.53;;;16.90;34.30;;;;;;5013411;28;20281;-49
2024/01/03 09:31:15;;;;;;;0.87;0.20;;;16.70;35.80;;;;;;5013552;28;20534;-49
2024/01/03 09:33:41;;;;;;;0.90;0.30;;;16.80;35.10;;;;;;5013644;28;20441;-54
2024/01/03 09:36:15;;;;;;;2.23;0.70;;;16.40;35.20;;;;;;5024155;22;20254;-46
2024/01/03 09:38:41;;;;;;;1.10;0.50;;;16.30;36.30;;;;;;4993329;28;20210;-55
2024/01/03 09:41:12;;;;;;;1.00;0.50;;;16.10;36.00;;;;;;4993931;28;20171;-52
2024/01/03 09:43:42;;;;;;;0.90;0.30;;;15.90;36.70;;;;;;4993453;28;20706;-48
2024/01/03 09:46:11;;;;;;;1.48;0.98;;;15.80;36.70;;;;;;4993740;28;20199;-49
2024/01/03 09:48:41;;;;;;;0.80;0.30;;;15.90;36.90;;;;;;4993631;28;20285;-48
2024/01/03 09:51:10;;;;;;;0.90;0.40;;;15.70;37.00;;;;;;4993713;28;20835;-54
2024/01/03 09:53:37;;;;;;;1.52;0.75;;;15.60;37.30;;;;;;4993602;28;20183;-49
2024/01/03 09:56:04;;;;;;;1.33;0.55;;;15.50;37.10;;;;;;5013307;28;20202;-49
2024/01/03 09:58:29;;;;;;;1.23;0.65;;;15.40;37.40;;;;;;5006103;28;20203;-53
2024/01/03 10:00:55;;;;;;;0.90;0.30;;;15.20;37.50;;;;;;4993531;28;20180;-50
2024/01/03 10:03:21;;;;;;;1.10;0.60;;;15.00;37.80;;;;;;4993537;28;20175;-47
2024/01/03 10:05:48;;;;;;;4.88;0.70;;;15.00;38.10;;;;;;4993382;28;20206;-53
2024/01/03 10:08:15;;;;;;;7.13;0.55;;;15.10;38.40;;;;;;4993448;28;20180;-49
2024/01/03 10:10:41;;;;;;;1.10;0.50;;;15.20;38.50;;;;;;4993214;28;20180;-46
2024/01/03 10:13:18;;;;;;;6.32;1.02;;;15.20;38.00;;;;;;4993352;28;20238;-55
2024/01/03 10:15:45;;;;;;;1.40;0.55;;;15.20;37.70;;;;;;4993145;28;20226;-49
2024/01/03 10:18:14;;;;;;;2.85;0.52;;;15.20;38.10;;;;;;4993157;28;20207;-46
2024/01/03 10:20:40;;;;;;;1.05;0.60;;;15.20;37.60;;;;;;4992888;28;20660;-52
2024/01/03 10:23:08;;;;;;;1.00;0.55;;;15.20;37.80;;;;;;4993138;28;20183;-52
2024/01/03 10:25:35;;;;;;;0.80;0.30;;;15.20;37.70;;;;;;4993005;28;20178;-46
2024/01/03 10:28:05;;;;;;;1.70;0.75;;;15.20;37.40;;;;;;4993077;28;20202;-52
2024/01/03 10:30:32;;;;;;;0.90;0.40;;;15.40;37.20;;;;;;4992922;28;20454;-48
2024/01/03 10:33:02;;;;;;;1.40;0.80;;;15.60;36.80;;;;;;5011496;28;20179;-48
2024/01/03 10:35:30;;;;;;;5.97;2.40;;;15.70;36.60;;;;;;5005827;28;20183;-56
2024/01/03 10:37:57;;;;;;;1.20;0.70;;;15.80;36.90;;;;;;4992659;28;20201;-50
2024/01/03 10:40:28;;;;;;;0.90;0.40;;;15.70;36.10;;;;;;4992739;28;20626;-47
2024/01/03 10:42:54;;;;;;;0.90;0.50;;;15.70;36.70;;;;;;5002660;28;20876;-54
2024/01/03 10:45:20;;;;;;;1.30;0.97;;;15.70;36.80;;;;;;5012489;28;20174;-47
2024/01/03 10:47:46;;;;;;;1.05;0.43;;;15.80;36.60;;;;;;5012387;28;20417;-48
2024/01/03 10:50:12;;;;;;;6.25;0.50;;;15.90;37.10;;;;;;5012081;28;20185;-51
2024/01/03 10:52:41;;;;;;;0.93;0.38;;;15.90;36.40;;;;;;5012125;28;20198;-50
2024/01/03 10:55:10;;;;;;;0.90;0.30;;;15.80;36.60;;;;;;5011621;28;20177;-47
2024/01/03 10:57:39;;;;;;;1.13;0.60;;;15.80;36.30;;;;;;5012050;28;20683;-54
2024/01/03 11:00:34;;;;;;;1.00;0.40;;;15.50;36.50;;;;;;5011930;28;20182;-56
2024/01/03 11:03:23;;;;;;;0.90;0.40;;;15.70;37.40;;;;;;5011978;28;20170;-47
2024/01/03 11:05:59;;;;;;;0.95;0.45;;;15.90;37.20;;;;;;4975038;28;20591;-49
2024/01/03 11:08:37;;;;;;;1.55;0.60;;;16.00;36.20;;;;;;5012031;28;20182;-50
2024/01/03 11:11:03;;;;;;;0.90;0.40;;;16.00;36.10;;;;;;5012214;28;20178;-48
2024/01/03 11:13:31;;;;;;;1.58;0.98;;;16.10;36.60;;;;;;5011878;28;20183;-50
2024/01/03 11:15:58;;;;;;;1.00;0.60;;;16.20;36.30;;;;;;4993644;28;20194;-55
2024/01/03 11:18:42;;;;;;;1.00;0.50;;;16.40;35.70;;;;;;4992315;28;20211;-47
2024/01/03 11:21:30;;;;;;;7.03;1.10;;;16.50;36.00;;;;;;4992366;28;20171;-53
2024/01/03 11:23:59;;;;;;;1.00;0.50;;;16.40;35.00;;;;;;4992165;28;20194;-47
2024/01/03 11:27:04;;;;;;;1.10;0.50;;;16.40;35.60;;;;;;4992417;28;20199;-56
2024/01/03 11:29:35;;;;;;;1.55;1.10;;;16.30;35.10;;;;;;4961948;28;20593;-49
2024/01/03 11:32:04;;;;;;;1.55;0.73;;;16.30;35.70;;;;;;4992275;28;20266;-50
2024/01/03 11:34:40;;;;;;;1.35;0.50;;;16.30;35.90;;;;;;4992200;28;20263;-56
2024/01/03 11:37:11;;;;;;;1.10;0.75;;;16.30;35.90;;;;;;4992078;28;20277;-47
2024/01/03 11:39:47;;;;;;;1.90;0.60;;;16.40;35.40;;;;;;4992135;28;20254;-55
2024/01/03 11:42:24;;;;;;;1.75;0.90;;;16.40;35.70;;;;;;4992295;28;20171;-47
2024/01/03 11:45:07;;;;;;;1.00;0.52;;;16.20;35.60;;;;;;4992096;28;20718;-54
2024/01/03 11:47:52;;;;;;;0.90;0.40;;;16.10;35.90;;;;;;4992105;28;20230;-55
2024/01/03 11:50:18;;;;;;;1.35;0.90;;;16.10;35.80;;;;;;4991956;28;20730;-46
2024/01/03 11:52:46;;;;;;;0.90;0.40;;;15.90;36.30;;;;;;4992166;28;20202;-48
2024/01/03 11:55:16;;;;;;;1.00;0.55;;;16.00;36.50;;;;;;4992099;28;20179;-53
2024/01/03 11:57:43;;;;;;;0.90;0.32;;;16.00;36.20;;;;;;4992235;28;20211;-50
2024/01/03 12:00:14;;;;;;;0.90;0.35;;;16.40;35.70;;;;;;4992084;28;20252;-50
2024/01/03 12:02:53;;;;;;;1.00;0.55;;;17.00;35.00;;;;;;4991983;28;20633;-53
2024/01/03 12:05:22;;;;;;;1.00;0.40;;;17.50;34.60;;;;;;4992894;28;20172;-47
2024/01/03 12:07:49;;;;;;;1.63;0.68;;;17.70;33.70;;;;;;4995556;28;20183;-53
2024/01/03 12:10:16;;;;;;;1.70;0.80;;;17.90;34.00;;;;;;4995588;28;20441;-49
2024/01/03 12:12:43;;;;;;;0.90;0.30;;;18.20;33.30;;;;;;4995447;28;20234;-48
2024/01/03 12:15:21;;;;;;;1.35;0.82;;;18.40;32.70;;;;;;4995537;28;20584;-55
2024/01/03 12:17:47;;;;;;;1.00;0.40;;;18.60;33.20;;;;;;5004238;28;20202;-55
2024/01/03 12:20:14;;;;;;;1.00;0.40;;;18.80;32.50;;;;;;5014701;28;20875;-47
2024/01/03 12:22:40;;;;;;;1.02;0.50;;;18.70;32.20;;;;;;5015062;28;20567;-55
2024/01/03 12:25:15;;;;;;;1.33;0.40;;;18.60;32.20;;;;;;5015007;28;20236;-49
2024/01/03 12:27:41;;;;;;;1.10;0.50;;;18.60;32.90;;;;;;5014862;28;20213;-47
2024/01/03 12:30:15;;;;;;;4.40;1.23;;;18.80;32.00;;;;;;4987059;28;20175;-48
2024/01/03 12:32:41;;;;;;;1.00;0.40;;;19.20;31.80;;;;;;4994998;28;20175;-47
2024/01/03 12:35:07;;;;;;;0.93;0.43;;;20.00;30.10;;;;;;4995099;28;20625;-46
2024/01/03 12:37:33;;;;;;;1.83;0.90;;;20.50;29.30;;;;;;4994866;28;20469;-53
2024/01/03 12:39:59;;;;;;;2.27;0.87;;;21.10;28.60;;;;;;4994864;28;20199;-50
2024/01/03 12:42:24;;;;;;;1.00;0.50;;;21.80;28.00;;;;;;4995008;28;20514;-49
2024/01/03 12:44:50;;;;;;;1.20;0.63;;;22.40;26.40;;;;;;4994853;28;20246;-55
2024/01/03 12:47:16;;;;;;;1.00;0.40;;;22.80;26.10;;;;;;4994735;28;20326;-51